createdAt,value
2022-11-14T00:01:33.908Z,16.50
2022-11-14T00:03:42.390Z,23.60
2022-11-14T00:05:50.888Z,12.03
2022-11-14T00:07:59.552Z,24.03
2022-11-14T00:10:08.731Z,14.40
2022-11-14T00:12:18.608Z,24.50
2022-11-14T00:14:27.159Z,16.07
2022-11-14T00:16:35.822Z,14.73
2022-11-14T00:18:44.210Z,19.93
2022-11-14T00:20:53.166Z,22.30
2022-11-14T00:23:01.704Z,25.87
2022-11-14T00:25:11.275Z,22.83
2022-11-14T00:27:21.072Z,51.17
2022-11-14T00:29:29.572Z,14.53
2022-11-14T00:31:38.001Z,26.47
2022-11-14T00:33:46.618Z,23.73
2022-11-14T00:35:55.352Z,12.43
2022-11-14T00:38:03.788Z,13.40
2022-11-14T00:40:14.610Z,19.30
2022-11-14T00:42:24.478Z,16.57
2022-11-14T00:44:33.258Z,12.67
2022-11-14T00:46:41.742Z,19.00
2022-11-14T00:48:50.314Z,19.43
2022-11-14T00:50:58.729Z,21.20
2022-11-14T00:53:07.449Z,20.80
2022-11-14T00:55:15.926Z,15.40
2022-11-14T00:57:26.015Z,11.87
2022-11-14T00:59:34.443Z,9.10
2022-11-14T01:01:43.247Z,11.20
2022-11-14T01:03:52.015Z,12.93
2022-11-14T01:06:05.375Z,14.50
2022-11-14T01:08:14.162Z,10.93
2022-11-14T01:10:23.304Z,11.27
2022-11-14T01:12:33.086Z,11.40
2022-11-14T01:14:42.015Z,11.63
2022-11-14T01:16:50.649Z,7.20
2022-11-14T01:18:59.154Z,10.80
2022-11-14T01:21:08.218Z,10.40
2022-11-14T01:23:18.552Z,9.10
2022-11-14T01:25:27.375Z,11.93
2022-11-14T01:27:37.687Z,7.53
2022-11-14T01:29:46.634Z,7.33
2022-11-14T01:31:55.672Z,8.63
2022-11-14T01:34:04.122Z,8.07
2022-11-14T01:36:13.025Z,8.47
2022-11-14T01:38:21.497Z,6.80
2022-11-14T01:40:30.323Z,6.87
2022-11-14T01:42:40.164Z,9.20
2022-11-14T01:44:49.898Z,10.03
2022-11-14T01:46:58.801Z,11.13
2022-11-14T01:49:10.750Z,10.83
2022-11-14T01:51:24.860Z,7.53
2022-11-14T01:53:33.440Z,7.90
2022-11-14T01:55:41.846Z,9.63
2022-11-14T01:57:51.658Z,10.77
2022-11-14T02:00:02.972Z,11.63
2022-11-14T02:02:14.213Z,8.03
2022-11-14T02:04:24.797Z,10.03
2022-11-14T02:06:33.834Z,7.17
2022-11-14T02:08:42.778Z,7.83
2022-11-14T02:10:51.221Z,11.67
2022-11-14T02:13:01.106Z,9.40
2022-11-14T02:15:11.168Z,8.30
2022-11-14T02:17:35.750Z,8.27
2022-11-14T02:19:46.142Z,8.57
2022-11-14T02:21:56.058Z,7.07
2022-11-14T02:24:04.825Z,8.63
2022-11-14T02:26:13.293Z,9.43
2022-11-14T02:28:22.106Z,8.13
2022-11-14T02:30:30.613Z,7.87
2022-11-14T02:35:07.759Z,10.07
2022-11-14T02:37:17.638Z,9.77
2022-11-14T02:39:26.268Z,7.67
2022-11-14T02:41:34.791Z,12.63
2022-11-14T02:43:43.188Z,8.50
2022-11-14T02:45:51.648Z,8.70
2022-11-14T02:48:00.281Z,12.07
2022-11-14T02:50:09.070Z,10.47
2022-11-14T02:52:19.117Z,9.27
2022-11-14T02:54:27.587Z,9.73
2022-11-14T02:56:36.015Z,9.67
2022-11-14T02:58:44.420Z,10.90
2022-11-14T03:01:18.964Z,8.53
2022-11-14T03:03:21.290Z,11.93
2022-11-14T03:05:29.699Z,13.37
2022-11-14T03:07:39.499Z,8.90
2022-11-14T03:09:47.965Z,12.07
2022-11-14T03:11:56.436Z,10.97
2022-11-14T03:14:05.132Z,11.07
2022-11-14T03:16:14.610Z,8.33
2022-11-14T03:18:23.023Z,13.50
2022-11-14T03:20:31.444Z,11.10
2022-11-14T03:22:41.312Z,8.77
2022-11-14T03:24:49.774Z,11.40
2022-11-14T03:26:58.199Z,11.03
2022-11-14T03:29:06.629Z,11.43
2022-11-14T03:31:15.699Z,12.47
2022-11-14T03:33:24.393Z,10.90
2022-11-14T03:35:32.867Z,11.37
2022-11-14T03:37:42.656Z,11.97
2022-11-14T03:39:51.263Z,13.50
2022-11-14T03:41:59.734Z,13.20
2022-11-14T03:44:08.360Z,9.43
2022-11-14T03:46:16.832Z,14.50
2022-11-14T03:48:25.867Z,13.80
2022-11-14T03:50:34.675Z,16.13
2022-11-14T03:52:44.491Z,10.80
2022-11-14T03:54:52.962Z,14.87
2022-11-14T03:57:01.639Z,10.90
2022-11-14T03:59:10.137Z,11.73
2022-11-14T04:01:18.840Z,13.33
2022-11-14T04:03:27.690Z,11.50
2022-11-14T04:05:36.342Z,14.20
2022-11-14T04:07:46.729Z,10.80
2022-11-14T04:09:55.243Z,10.83
2022-11-14T04:12:03.748Z,13.30
2022-11-14T04:14:12.250Z,11.97
2022-11-14T04:16:20.927Z,15.23
2022-11-14T04:18:29.908Z,9.97
2022-11-14T04:20:38.627Z,13.80
2022-11-14T04:22:48.653Z,10.97
2022-11-14T04:24:57.142Z,12.90
2022-11-14T04:27:05.783Z,20.87
2022-11-14T04:29:14.226Z,11.53
2022-11-14T04:31:22.724Z,12.93
2022-11-14T04:33:31.426Z,12.23
2022-11-14T04:35:40.070Z,10.80
2022-11-14T04:37:49.935Z,12.90
2022-11-14T04:40:00.979Z,15.87
2022-11-14T04:42:09.630Z,12.13
2022-11-14T04:44:18.198Z,9.20
2022-11-14T04:46:26.914Z,15.17
2022-11-14T04:48:35.421Z,8.67
2022-11-14T04:50:44.038Z,13.87
2022-11-14T04:52:55.676Z,11.23
2022-11-14T04:55:04.408Z,13.80
2022-11-14T04:57:12.896Z,10.03
2022-11-14T04:59:21.483Z,12.47
2022-11-14T05:01:30.044Z,12.80
2022-11-14T05:03:38.532Z,10.83
2022-11-14T05:05:47.261Z,10.60
2022-11-14T05:07:57.642Z,13.57
2022-11-14T05:10:06.639Z,12.87
2022-11-14T05:12:15.270Z,8.87
2022-11-14T05:14:23.689Z,11.67
2022-11-14T05:16:32.488Z,9.23
2022-11-14T05:18:46.734Z,11.17
2022-11-14T05:20:55.483Z,10.60
2022-11-14T05:23:05.318Z,10.50
2022-11-14T05:25:13.856Z,11.73
2022-11-14T05:27:22.312Z,17.40
2022-11-14T05:29:31.057Z,12.23
2022-11-14T05:31:39.508Z,10.30
2022-11-14T05:33:48.252Z,14.43
2022-11-14T05:35:56.834Z,11.70
2022-11-14T05:38:06.996Z,13.20
2022-11-14T05:40:17.138Z,12.93
2022-11-14T05:42:25.750Z,16.07
2022-11-14T05:44:34.971Z,19.20
2022-11-14T05:46:43.587Z,12.37
2022-11-14T05:48:52.453Z,15.20
2022-11-14T05:51:01.508Z,16.33
2022-11-14T05:53:11.580Z,14.30
2022-11-14T05:55:25.159Z,14.10
2022-11-14T05:57:33.710Z,21.40
2022-11-14T05:59:42.149Z,18.43
2022-11-14T06:01:50.667Z,22.33
2022-11-14T06:03:59.495Z,15.40
2022-11-14T06:06:09.700Z,15.50
2022-11-14T06:08:19.707Z,17.90
2022-11-14T06:10:28.537Z,21.13
2022-11-14T06:12:36.956Z,15.77
2022-11-14T06:14:45.382Z,14.63
2022-11-14T06:16:53.749Z,13.83
2022-11-14T06:19:02.153Z,14.10
2022-11-14T06:21:12.605Z,17.63
2022-11-14T06:23:24.877Z,18.63
2022-11-14T06:25:33.715Z,18.43
2022-11-14T06:27:42.327Z,21.67
2022-11-14T06:29:50.752Z,17.27
2022-11-14T06:31:59.245Z,14.60
2022-11-14T06:34:07.694Z,17.33
2022-11-14T06:36:16.132Z,11.90
2022-11-14T06:38:26.119Z,12.87
2022-11-14T06:40:34.815Z,14.10
2022-11-14T06:42:43.330Z,14.47
2022-11-14T06:44:51.744Z,17.57
2022-11-14T06:47:00.392Z,19.53
2022-11-14T06:49:09.205Z,25.13
2022-11-14T06:51:19.197Z,20.60
2022-11-14T06:53:29.813Z,19.90
2022-11-14T06:55:38.313Z,16.87
2022-11-14T06:57:46.910Z,14.57
2022-11-14T06:59:55.373Z,17.80
2022-11-14T07:02:04.106Z,13.23
2022-11-14T07:04:12.730Z,13.73
2022-11-14T07:06:22.159Z,9.80
2022-11-14T07:08:32.676Z,12.67
2022-11-14T07:10:41.398Z,11.60
2022-11-14T07:12:50.041Z,12.10
2022-11-14T07:14:58.488Z,13.20
2022-11-14T07:17:06.980Z,14.90
2022-11-14T07:19:15.610Z,14.13
2022-11-14T07:21:24.061Z,12.20
2022-11-14T07:23:34.576Z,12.80
2022-11-14T07:25:43.449Z,14.20
2022-11-14T07:27:51.871Z,17.80
2022-11-14T07:30:00.381Z,13.80
2022-11-14T07:32:08.821Z,16.80
2022-11-14T07:34:17.441Z,17.20
2022-11-14T07:36:25.909Z,14.20
2022-11-14T07:38:36.308Z,16.77
2022-11-14T07:40:44.720Z,15.47
2022-11-14T07:42:53.128Z,15.47
2022-11-14T07:45:01.569Z,15.17
2022-11-14T07:47:10.372Z,11.17
2022-11-14T07:49:18.852Z,14.00
2022-11-14T07:51:27.413Z,12.97
2022-11-14T07:53:37.351Z,14.10
2022-11-14T07:55:45.803Z,10.23
2022-11-14T07:57:55.114Z,13.03
2022-11-14T08:00:03.952Z,14.13
2022-11-14T08:02:14.549Z,16.20
2022-11-14T08:04:23.203Z,12.80
2022-11-14T08:06:32.402Z,14.40
2022-11-14T08:08:42.212Z,13.23
2022-11-14T08:10:50.632Z,13.07
2022-11-14T08:13:25.279Z,11.10
2022-11-14T08:15:29.511Z,15.40
2022-11-14T08:17:38.247Z,10.97
2022-11-14T08:19:46.748Z,9.07
2022-11-14T08:21:55.203Z,11.93
2022-11-14T08:24:05.252Z,11.03
2022-11-14T08:26:13.874Z,12.13
2022-11-14T08:28:22.929Z,9.50
2022-11-14T08:30:31.672Z,8.53
2022-11-14T08:32:40.279Z,4.40
2022-11-14T08:34:48.708Z,6.23
2022-11-14T08:36:58.417Z,5.13
2022-11-14T08:39:08.315Z,3.53
2022-11-14T08:41:16.737Z,4.07
2022-11-14T08:43:25.560Z,5.17
2022-11-14T08:45:34.181Z,4.43
2022-11-14T08:47:42.756Z,3.53
2022-11-14T08:49:51.208Z,2.50
2022-11-14T08:51:59.856Z,1.33
2022-11-14T08:54:09.715Z,1.57
2022-11-14T08:56:18.486Z,1.63
2022-11-14T08:58:29.274Z,2.53
2022-11-14T09:00:38.048Z,1.70
2022-11-14T09:02:47.531Z,1.57
2022-11-14T09:04:56.254Z,2.13
2022-11-14T09:07:04.790Z,2.07
2022-11-14T09:09:14.613Z,1.77
2022-11-14T09:11:23.026Z,1.10
2022-11-14T09:13:31.833Z,1.20
2022-11-14T09:15:40.525Z,1.30
2022-11-14T09:17:49.542Z,2.13
2022-11-14T09:19:57.989Z,1.20
2022-11-14T09:22:06.467Z,1.83
2022-11-14T09:24:16.379Z,1.40
2022-11-14T09:26:25.544Z,1.10
2022-11-14T09:28:34.245Z,1.30
2022-11-14T09:30:42.839Z,0.90
2022-11-14T09:32:51.622Z,0.77
2022-11-14T09:35:00.331Z,0.63
2022-11-14T09:37:08.967Z,0.60
2022-11-14T09:39:19.129Z,0.80
2022-11-14T09:41:28.490Z,0.60
2022-11-14T09:43:44.787Z,1.00
2022-11-14T09:45:54.163Z,0.63
2022-11-14T09:48:04.942Z,0.80
2022-11-14T09:50:15.352Z,0.60
2022-11-14T09:52:28.488Z,0.60
2022-11-14T09:54:42.598Z,0.63
2022-11-14T09:56:51.094Z,0.70
2022-11-14T09:59:00.661Z,0.97
2022-11-14T10:01:13.342Z,2.03
2022-11-14T10:03:27.164Z,0.93
2022-11-14T10:05:42.156Z,1.50
2022-11-14T10:07:57.241Z,0.90
2022-11-14T10:10:09.971Z,0.90
2022-11-14T10:12:21.631Z,0.83
2022-11-14T10:14:51.420Z,1.33
2022-11-14T10:17:10.304Z,1.00
2022-11-14T10:19:23.556Z,0.60
2022-11-14T10:21:37.066Z,1.43
2022-11-14T10:23:47.730Z,1.33
2022-11-14T10:26:03.431Z,0.50
2022-11-14T10:28:20.880Z,0.80
2022-11-14T10:30:32.891Z,0.80
2022-11-14T10:32:56.193Z,0.73
2022-11-14T10:35:06.250Z,1.07
2022-11-14T10:37:17.772Z,0.87
2022-11-14T10:39:28.825Z,0.80
2022-11-14T10:41:57.650Z,0.70
2022-11-14T10:44:12.678Z,1.47
2022-11-14T10:46:24.547Z,0.93
2022-11-14T10:48:33.885Z,3.13
2022-11-14T10:50:45.013Z,0.90
2022-11-14T10:52:54.937Z,2.30
2022-11-14T10:55:07.718Z,0.70
2022-11-14T10:57:18.993Z,1.90
2022-11-14T10:59:29.002Z,1.60
2022-11-14T11:01:39.394Z,1.20
2022-11-14T11:03:47.856Z,1.73
2022-11-14T11:05:58.132Z,1.53
2022-11-14T11:08:43.353Z,1.50
2022-11-14T11:11:16.600Z,1.20
2022-11-14T11:13:33.911Z,1.50
2022-11-14T11:15:42.960Z,1.20
2022-11-14T11:17:58.615Z,2.30
2022-11-14T11:20:26.509Z,2.27
2022-11-14T11:22:38.129Z,3.13
2022-11-14T11:24:46.757Z,3.00
2022-11-14T11:27:13.819Z,2.10
2022-11-14T11:29:23.762Z,2.13
2022-11-14T11:31:51.101Z,1.87
2022-11-14T11:34:04.774Z,2.90
2022-11-14T11:36:15.394Z,1.77
2022-11-14T11:38:25.880Z,2.23
2022-11-14T11:40:34.525Z,1.80
2022-11-14T11:45:18.762Z,1.97
2022-11-14T11:47:28.206Z,2.27
2022-11-14T11:49:39.320Z,3.47
2022-11-14T11:51:48.559Z,3.17
2022-11-14T11:54:00.614Z,2.00
2022-11-14T11:56:11.713Z,2.47
2022-11-14T11:58:23.388Z,1.90
2022-11-14T12:00:33.472Z,2.20
2022-11-14T12:02:49.507Z,3.10
2022-11-14T12:04:59.519Z,3.97
2022-11-14T12:07:11.633Z,4.17
2022-11-14T12:09:21.996Z,3.73
2022-11-14T12:11:33.025Z,2.70
2022-11-14T12:13:56.796Z,4.07
2022-11-14T12:16:26.156Z,3.20
2022-11-14T12:18:45.162Z,2.83
2022-11-14T12:20:58.707Z,4.03
2022-11-14T12:23:19.840Z,5.20
2022-11-14T12:25:37.267Z,5.53
2022-11-14T12:27:53.964Z,4.63
2022-11-14T12:30:10.735Z,4.73
2022-11-14T12:32:21.053Z,2.40
2022-11-14T12:34:33.323Z,4.17
2022-11-14T12:36:44.496Z,3.43
2022-11-14T12:38:54.748Z,3.80
2022-11-14T12:41:03.904Z,3.13
2022-11-14T12:43:33.197Z,4.00
2022-11-14T12:46:01.440Z,4.80
2022-11-14T12:48:23.556Z,4.57
2022-11-14T12:50:42.033Z,5.70
2022-11-14T12:52:52.878Z,4.53
2022-11-14T12:55:01.522Z,3.60
2022-11-14T12:57:30.837Z,4.50
2022-11-14T12:59:51.336Z,2.73
2022-11-14T13:02:08.112Z,4.77
2022-11-14T13:04:25.049Z,3.33
2022-11-14T13:06:40.270Z,2.40
2022-11-14T13:08:54.861Z,2.47
2022-11-14T13:11:43.811Z,2.77
2022-11-14T13:14:21.603Z,2.57
2022-11-14T13:16:49.718Z,2.23
2022-11-14T13:19:18.124Z,3.30
2022-11-14T13:21:45.810Z,2.90
2022-11-14T13:24:02.087Z,2.00
2022-11-14T13:26:29.227Z,2.03
2022-11-14T13:28:48.659Z,1.57
2022-11-14T13:31:20.204Z,1.40
2022-11-14T13:33:44.645Z,2.30
2022-11-14T13:36:00.742Z,1.57
2022-11-14T13:38:20.888Z,1.77
2022-11-14T13:40:35.217Z,3.93
2022-11-14T13:42:50.631Z,1.33
2022-11-14T13:45:17.921Z,1.47
2022-11-14T13:47:37.217Z,2.93
2022-11-14T13:49:54.519Z,1.60
2022-11-14T13:52:03.176Z,1.40
2022-11-14T13:54:18.081Z,1.83
2022-11-14T13:56:33.371Z,7.10
2022-11-14T13:58:51.669Z,3.23
2022-11-14T14:01:06.187Z,2.17
2022-11-14T14:03:28.575Z,3.57
2022-11-14T14:05:44.582Z,2.03
2022-11-14T14:07:57.940Z,4.40
2022-11-14T14:10:10.908Z,3.60
2022-11-14T14:12:39.553Z,4.77
2022-11-14T14:15:09.924Z,2.93
2022-11-14T14:17:22.722Z,4.27
2022-11-14T14:19:38.401Z,2.80
2022-11-14T14:21:50.076Z,5.80
2022-11-14T14:24:03.086Z,2.70
2022-11-14T14:26:18.420Z,2.07
2022-11-14T14:28:32.259Z,1.40
2022-11-14T14:30:40.997Z,2.10
2022-11-14T14:33:04.307Z,1.43
2022-11-14T14:35:23.066Z,1.73
2022-11-14T14:37:32.636Z,4.53
2022-11-14T14:39:41.081Z,1.50
2022-11-14T14:41:49.988Z,3.03
2022-11-14T14:44:01.233Z,2.10
2022-11-14T14:46:09.997Z,3.47
2022-11-14T14:48:23.701Z,2.27
2022-11-14T14:50:35.514Z,2.63
2022-11-14T14:52:43.977Z,2.47
2022-11-14T14:54:56.030Z,1.57
2022-11-14T14:57:04.504Z,2.53
2022-11-14T14:59:21.268Z,2.13
2022-11-14T15:01:33.194Z,1.97
2022-11-14T15:03:42.447Z,1.40
2022-11-14T15:05:51.030Z,1.60
2022-11-14T15:08:01.077Z,2.30
2022-11-14T15:10:10.117Z,3.80
2022-11-14T15:12:18.634Z,6.13
2022-11-14T15:14:29.730Z,4.27
2022-11-14T15:16:38.170Z,3.20
2022-11-14T15:18:46.944Z,5.53
2022-11-14T15:21:14.276Z,2.60
2022-11-14T15:23:22.854Z,2.93
2022-11-14T15:25:31.983Z,2.57
2022-11-14T15:27:47.011Z,7.27
2022-11-14T15:29:59.633Z,2.83
2022-11-14T15:32:08.096Z,4.80
2022-11-14T15:34:30.000Z,2.20
2022-11-14T15:36:38.817Z,2.43
2022-11-14T15:39:00.972Z,3.27
2022-11-14T15:41:20.589Z,2.70
2022-11-14T15:43:39.118Z,3.20
2022-11-14T15:45:48.941Z,2.57
2022-11-14T15:48:01.336Z,3.10
2022-11-14T15:50:24.284Z,4.17
2022-11-14T15:52:35.699Z,2.77
2022-11-14T15:54:44.186Z,6.10
2022-11-14T15:56:52.678Z,3.97
2022-11-14T15:59:02.586Z,4.43
2022-11-14T16:01:15.858Z,3.43
2022-11-14T16:03:24.796Z,3.80
2022-11-14T16:05:33.379Z,3.73
2022-11-14T16:07:42.040Z,3.67
2022-11-14T16:09:50.543Z,8.07
2022-11-14T16:11:59.181Z,5.03
2022-11-14T16:14:07.734Z,2.23
2022-11-14T16:16:17.559Z,3.77
2022-11-14T16:18:26.037Z,2.53
2022-11-14T16:20:38.088Z,6.83
2022-11-14T16:22:47.903Z,12.13
2022-11-14T16:24:56.975Z,3.60
2022-11-14T16:27:05.552Z,4.47
2022-11-14T16:29:14.075Z,6.00
2022-11-14T16:31:24.125Z,9.97
2022-11-14T16:33:32.838Z,3.90
2022-11-14T16:35:41.582Z,5.23
2022-11-14T16:37:50.414Z,5.57
2022-11-14T16:39:59.124Z,3.67
2022-11-14T16:42:08.521Z,4.27
2022-11-14T16:44:18.704Z,4.90
2022-11-14T16:46:28.566Z,5.73
2022-11-14T16:48:37.036Z,4.80
2022-11-14T16:50:45.650Z,7.17
2022-11-14T16:52:54.516Z,5.00
2022-11-14T16:55:02.976Z,7.23
2022-11-14T16:57:11.455Z,12.83
2022-11-14T16:59:19.937Z,10.07
2022-11-14T17:01:30.031Z,4.07
2022-11-14T17:03:38.512Z,4.63
2022-11-14T17:05:47.758Z,5.87
2022-11-14T17:07:57.729Z,4.23
2022-11-14T17:10:06.536Z,5.03
2022-11-14T17:12:15.291Z,5.27
2022-11-14T17:14:23.735Z,3.77
2022-11-14T17:16:33.550Z,5.07
2022-11-14T17:18:42.417Z,4.53
2022-11-14T17:20:53.502Z,4.57
2022-11-14T17:23:02.127Z,6.13
2022-11-14T17:25:10.659Z,4.47
2022-11-14T17:27:19.092Z,4.97
2022-11-14T17:29:28.924Z,6.47
2022-11-14T17:31:42.060Z,7.83
2022-11-14T17:33:53.202Z,5.07
2022-11-14T17:36:04.635Z,4.30
2022-11-14T17:38:13.281Z,4.20
2022-11-14T17:40:21.871Z,4.40
2022-11-14T17:42:30.361Z,4.90
2022-11-14T17:44:38.998Z,4.67
2022-11-14T17:46:49.600Z,5.03
2022-11-14T17:48:58.618Z,5.33
2022-11-14T17:51:07.848Z,8.17
2022-11-14T17:53:16.257Z,7.70
2022-11-14T17:55:24.664Z,6.03
2022-11-14T17:57:33.219Z,6.73
2022-11-14T17:59:42.472Z,8.20
2022-11-14T18:01:54.651Z,6.77
2022-11-14T18:04:06.467Z,6.07
2022-11-14T18:06:16.790Z,6.30
2022-11-14T18:08:25.909Z,8.23
2022-11-14T18:10:34.463Z,6.47
2022-11-14T18:12:42.988Z,6.50
2022-11-14T18:14:51.433Z,8.50
2022-11-14T18:17:16.807Z,7.83
2022-11-14T18:19:25.280Z,6.03
2022-11-14T18:21:33.901Z,7.47
2022-11-14T18:23:42.377Z,5.47
2022-11-14T18:25:50.890Z,5.17
2022-11-14T18:27:59.433Z,5.37
2022-11-14T18:30:34.654Z,5.40
2022-11-14T18:32:38.361Z,4.00
2022-11-14T18:34:46.784Z,5.73
2022-11-14T18:36:55.470Z,4.80
2022-11-14T18:39:03.920Z,5.00
2022-11-14T18:41:14.842Z,5.40
2022-11-14T18:43:23.259Z,5.77
2022-11-14T18:45:31.961Z,5.03
2022-11-14T18:47:41.958Z,4.80
2022-11-14T18:49:50.533Z,5.07
2022-11-14T18:52:02.357Z,7.60
2022-11-14T18:54:18.906Z,6.27
2022-11-14T18:56:27.882Z,6.37
2022-11-14T18:58:39.662Z,6.10
2022-11-14T19:00:48.516Z,5.50
2022-11-14T19:03:03.432Z,6.40
2022-11-14T19:05:14.466Z,6.87
2022-11-14T19:07:23.216Z,6.60
2022-11-14T19:09:32.141Z,6.60
2022-11-14T19:11:58.539Z,7.83
2022-11-14T19:14:07.716Z,9.23
2022-11-14T19:16:16.108Z,9.10
2022-11-14T19:18:26.301Z,7.23
2022-11-14T19:20:34.997Z,7.17
2022-11-14T19:22:45.098Z,8.33
2022-11-14T19:24:53.499Z,8.53
2022-11-14T19:27:01.960Z,7.23
2022-11-14T19:29:13.460Z,7.00
2022-11-14T19:31:22.547Z,6.97
2022-11-14T19:33:33.001Z,6.97
2022-11-14T19:35:41.833Z,6.13
2022-11-14T19:37:50.433Z,7.43
2022-11-14T19:40:00.355Z,9.20
2022-11-14T19:42:08.813Z,9.73
2022-11-14T19:44:17.310Z,6.37
2022-11-14T19:46:29.096Z,7.03
2022-11-14T19:48:39.690Z,7.97
2022-11-14T19:50:48.371Z,6.67
2022-11-14T19:52:57.054Z,6.93
2022-11-14T19:55:05.786Z,7.13
2022-11-14T19:57:14.222Z,7.33
2022-11-14T19:59:24.641Z,7.53
2022-11-14T20:01:34.346Z,6.37
2022-11-14T20:03:44.307Z,6.43
2022-11-14T20:05:52.801Z,7.77
2022-11-14T20:08:01.401Z,7.53
2022-11-14T20:10:11.119Z,9.10
2022-11-14T20:12:19.930Z,8.17
2022-11-14T20:14:28.573Z,8.47
2022-11-14T20:16:37.891Z,7.27
2022-11-14T20:18:52.228Z,8.13
2022-11-14T20:21:05.259Z,6.80
2022-11-14T20:23:13.812Z,8.40
2022-11-14T20:25:22.334Z,7.60
2022-11-14T20:27:31.108Z,8.37
2022-11-14T20:29:40.076Z,7.87
2022-11-14T20:31:48.878Z,6.53
2022-11-14T20:33:58.899Z,10.73
2022-11-14T20:36:09.686Z,9.30
2022-11-14T20:38:18.320Z,6.60
2022-11-14T20:40:26.917Z,8.13
2022-11-14T20:42:35.740Z,9.73
2022-11-14T20:44:44.698Z,7.27
2022-11-14T20:46:55.673Z,7.77
2022-11-14T20:49:08.253Z,9.93
2022-11-14T20:51:17.477Z,8.20
2022-11-14T20:53:26.036Z,7.43
2022-11-14T20:55:34.629Z,6.60
2022-11-14T20:57:43.452Z,7.53
2022-11-14T20:59:52.547Z,10.13
2022-11-14T21:02:01.178Z,9.27
2022-11-14T21:04:11.556Z,8.50
2022-11-14T21:06:20.470Z,7.17
2022-11-14T21:08:29.805Z,10.07
2022-11-14T21:10:48.373Z,7.60
2022-11-14T21:13:10.734Z,8.67
2022-11-14T21:15:19.573Z,7.50
2022-11-14T21:17:28.042Z,7.83
2022-11-14T21:19:38.311Z,9.40
2022-11-14T21:21:46.716Z,7.23
2022-11-14T21:23:55.460Z,7.73
2022-11-14T21:26:05.310Z,7.87
2022-11-14T21:28:13.788Z,9.60
2022-11-14T21:30:22.610Z,7.13
2022-11-14T21:32:31.108Z,8.27
2022-11-14T21:34:41.313Z,6.87
2022-11-14T21:36:49.769Z,4.63
2022-11-14T21:38:58.741Z,6.07
2022-11-14T21:41:08.076Z,4.73
2022-11-14T21:43:16.876Z,5.33
2022-11-14T21:45:25.340Z,5.10
2022-11-14T21:47:34.996Z,6.00
2022-11-14T21:49:44.819Z,6.03
2022-11-14T21:51:53.262Z,4.57
2022-11-14T21:54:02.809Z,5.23
2022-11-14T21:56:12.267Z,5.10
2022-11-14T21:58:20.956Z,5.43
2022-11-14T22:00:29.455Z,4.03
2022-11-14T22:02:55.385Z,4.63
2022-11-14T22:05:05.460Z,2.53
2022-11-14T22:07:13.999Z,5.03
2022-11-14T22:09:22.618Z,2.97
2022-11-14T22:11:31.525Z,3.47
2022-11-14T22:13:40.463Z,3.07
2022-11-14T22:15:48.929Z,2.20
2022-11-14T22:17:57.615Z,3.30
2022-11-14T22:20:09.484Z,2.97
2022-11-14T22:22:17.967Z,3.43
2022-11-14T22:24:26.468Z,1.83
2022-11-14T22:26:39.972Z,1.33
2022-11-14T22:28:48.830Z,1.17
2022-11-14T22:31:04.396Z,1.17
2022-11-14T22:33:12.935Z,1.60
2022-11-14T22:35:22.801Z,0.87
2022-11-14T22:37:31.441Z,1.00
2022-11-14T22:39:40.122Z,1.10
2022-11-14T22:41:48.727Z,0.83
2022-11-14T22:43:57.366Z,1.93
2022-11-14T22:46:05.887Z,1.63
2022-11-14T22:48:14.333Z,0.83
2022-11-14T22:50:24.315Z,1.17
2022-11-14T22:52:32.852Z,1.00
2022-11-14T22:54:42.279Z,1.07
2022-11-14T22:56:50.765Z,2.57
2022-11-14T22:59:00.811Z,1.03
2022-11-14T23:01:12.623Z,1.00
2022-11-14T23:03:21.909Z,1.43
2022-11-14T23:05:36.395Z,0.70
2022-11-14T23:07:44.982Z,0.70
2022-11-14T23:09:53.596Z,1.63
2022-11-14T23:12:02.037Z,1.40
2022-11-14T23:14:11.520Z,2.87
2022-11-14T23:16:20.857Z,1.20
2022-11-14T23:18:29.286Z,1.17
2022-11-14T23:20:39.146Z,1.10
2022-11-14T23:22:47.577Z,2.73
2022-11-14T23:24:56.238Z,1.20
2022-11-14T23:27:04.842Z,1.37
2022-11-14T23:29:15.086Z,1.27
2022-11-14T23:31:24.395Z,1.20
2022-11-14T23:33:33.529Z,1.77
2022-11-14T23:35:43.983Z,1.07
2022-11-14T23:37:52.746Z,2.17
2022-11-14T23:40:01.463Z,0.70
2022-11-14T23:42:10.297Z,0.80
2022-11-14T23:44:18.800Z,0.60
2022-11-14T23:46:27.273Z,1.57
2022-11-14T23:48:36.150Z,0.90
2022-11-14T23:50:46.349Z,0.60
2022-11-14T23:52:54.814Z,1.27
2022-11-14T23:55:03.822Z,0.80
2022-11-14T23:57:12.437Z,1.00
2022-11-14T23:59:21.089Z,0.87
